sensor_id;sensor_type;location;lat;lon;timestamp;P1;durP1;ratioP1;P2;durP2;ratioP2
74689;SDS011;63221;51.860;-2.188;2022-12-18T00:01:31;8.23;;;3.55;;
74689;SDS011;63221;51.860;-2.188;2022-12-18T00:04:01;8.30;;;4.20;;
74689;SDS011;63221;51.860;-2.188;2022-12-18T00:06:28;10.32;;;4.20;;
74689;SDS011;63221;51.860;-2.188;2022-12-18T00:08:54;7.63;;;3.13;;
74689;SDS011;63221;51.860;-2.188;2022-12-18T00:11:22;8.00;;;3.58;;
74689;SDS011;63221;51.860;-2.188;2022-12-18T00:13:49;7.53;;;3.17;;
74689;SDS011;63221;51.860;-2.188;2022-12-18T00:16:16;5.05;;;2.75;;
74689;SDS011;63221;51.860;-2.188;2022-12-18T00:18:45;7.75;;;4.07;;
74689;SDS011;63221;51.860;-2.188;2022-12-18T00:21:11;6.27;;;2.50;;
74689;SDS011;63221;51.860;-2.188;2022-12-18T00:23:37;8.80;;;3.08;;
74689;SDS011;63221;51.860;-2.188;2022-12-18T00:26:07;7.93;;;3.53;;
74689;SDS011;63221;51.860;-2.188;2022-12-18T00:28:40;8.02;;;3.22;;
74689;SDS011;63221;51.860;-2.188;2022-12-18T00:33:33;11.60;;;5.05;;
74689;SDS011;63221;51.860;-2.188;2022-12-18T00:36:05;8.87;;;3.20;;
74689;SDS011;63221;51.860;-2.188;2022-12-18T00:38:33;9.45;;;3.83;;
74689;SDS011;63221;51.860;-2.188;2022-12-18T00:40:58;8.35;;;3.90;;
74689;SDS011;63221;51.860;-2.188;2022-12-18T00:43:24;8.93;;;3.85;;
74689;SDS011;63221;51.860;-2.188;2022-12-18T00:45:50;7.97;;;3.43;;
74689;SDS011;63221;51.860;-2.188;2022-12-18T00:48:15;8.77;;;4.43;;
74689;SDS011;63221;51.860;-2.188;2022-12-18T00:50:40;6.07;;;3.20;;
74689;SDS011;63221;51.860;-2.188;2022-12-18T00:53:06;6.35;;;3.13;;
74689;SDS011;63221;51.860;-2.188;2022-12-18T00:55:31;7.93;;;3.03;;
74689;SDS011;63221;51.860;-2.188;2022-12-18T00:57:57;5.23;;;3.20;;
74689;SDS011;63221;51.860;-2.188;2022-12-18T01:00:22;9.00;;;3.53;;
74689;SDS011;63221;51.860;-2.188;2022-12-18T01:02:48;8.15;;;4.28;;
74689;SDS011;63221;51.860;-2.188;2022-12-18T01:05:14;7.77;;;3.77;;
74689;SDS011;63221;51.860;-2.188;2022-12-18T01:07:40;9.52;;;3.63;;
74689;SDS011;63221;51.860;-2.188;2022-12-18T01:10:06;7.77;;;4.00;;
74689;SDS011;63221;51.860;-2.188;2022-12-18T01:12:32;8.38;;;3.80;;
74689;SDS011;63221;51.860;-2.188;2022-12-18T01:14:57;8.27;;;3.67;;
74689;SDS011;63221;51.860;-2.188;2022-12-18T01:17:23;7.82;;;4.18;;
74689;SDS011;63221;51.860;-2.188;2022-12-18T01:19:49;9.77;;;3.97;;
74689;SDS011;63221;51.860;-2.188;2022-12-18T01:22:14;6.13;;;3.40;;
74689;SDS011;63221;51.860;-2.188;2022-12-18T01:24:39;8.60;;;4.47;;
74689;SDS011;63221;51.860;-2.188;2022-12-18T01:27:05;8.80;;;4.87;;
74689;SDS011;63221;51.860;-2.188;2022-12-18T01:29:30;9.23;;;4.10;;
74689;SDS011;63221;51.860;-2.188;2022-12-18T01:31:56;5.57;;;3.17;;
74689;SDS011;63221;51.860;-2.188;2022-12-18T01:34:22;9.70;;;4.10;;
74689;SDS011;63221;51.860;-2.188;2022-12-18T01:36:50;10.23;;;3.95;;
74689;SDS011;63221;51.860;-2.188;2022-12-18T01:39:18;11.55;;;4.35;;
74689;SDS011;63221;51.860;-2.188;2022-12-18T01:41:44;12.43;;;5.97;;
74689;SDS011;63221;51.860;-2.188;2022-12-18T01:47:47;8.43;;;4.10;;
74689;SDS011;63221;51.860;-2.188;2022-12-18T01:50:22;10.88;;;4.30;;
74689;SDS011;63221;51.860;-2.188;2022-12-18T01:52:51;12.40;;;4.88;;
74689;SDS011;63221;51.860;-2.188;2022-12-18T01:55:19;9.07;;;4.03;;
74689;SDS011;63221;51.860;-2.188;2022-12-18T01:57:46;8.20;;;3.90;;
74689;SDS011;63221;51.860;-2.188;2022-12-18T02:00:13;9.30;;;4.53;;
74689;SDS011;63221;51.860;-2.188;2022-12-18T02:02:41;9.90;;;3.97;;
74689;SDS011;63221;51.860;-2.188;2022-12-18T02:05:07;9.77;;;4.90;;
74689;SDS011;63221;51.860;-2.188;2022-12-18T02:07:37;12.07;;;5.18;;
74689;SDS011;63221;51.860;-2.188;2022-12-18T02:12:47;12.75;;;5.65;;
74689;SDS011;63221;51.860;-2.188;2022-12-18T02:18:10;10.97;;;5.30;;
74689;SDS011;63221;51.860;-2.188;2022-12-18T02:20:44;10.15;;;4.53;;
74689;SDS011;63221;51.860;-2.188;2022-12-18T02:29:28;15.60;;;6.00;;
74689;SDS011;63221;51.860;-2.188;2022-12-18T02:31:36;12.33;;;4.50;;
74689;SDS011;63221;51.860;-2.188;2022-12-18T02:34:05;13.07;;;5.10;;
74689;SDS011;63221;51.860;-2.188;2022-12-18T02:36:32;10.77;;;5.45;;
74689;SDS011;63221;51.860;-2.188;2022-12-18T02:38:58;14.43;;;4.90;;
74689;SDS011;63221;51.860;-2.188;2022-12-18T02:41:25;13.00;;;5.13;;
74689;SDS011;63221;51.860;-2.188;2022-12-18T02:43:58;15.73;;;6.03;;
74689;SDS011;63221;51.860;-2.188;2022-12-18T02:48:54;12.00;;;5.38;;
74689;SDS011;63221;51.860;-2.188;2022-12-18T02:51:32;10.00;;;5.38;;
74689;SDS011;63221;51.860;-2.188;2022-12-18T02:54:30;12.63;;;6.07;;
74689;SDS011;63221;51.860;-2.188;2022-12-18T02:57:18;12.02;;;5.28;;
74689;SDS011;63221;51.860;-2.188;2022-12-18T02:59:52;13.30;;;5.53;;
74689;SDS011;63221;51.860;-2.188;2022-12-18T03:02:25;13.88;;;6.40;;
74689;SDS011;63221;51.860;-2.188;2022-12-18T03:07:47;17.03;;;6.70;;
74689;SDS011;63221;51.860;-2.188;2022-12-18T03:10:16;12.77;;;5.63;;
74689;SDS011;63221;51.860;-2.188;2022-12-18T03:12:52;11.20;;;4.93;;
74689;SDS011;63221;51.860;-2.188;2022-12-18T03:15:32;16.27;;;6.40;;
74689;SDS011;63221;51.860;-2.188;2022-12-18T03:18:05;17.23;;;6.80;;
74689;SDS011;63221;51.860;-2.188;2022-12-18T03:20:34;14.33;;;5.47;;
74689;SDS011;63221;51.860;-2.188;2022-12-18T03:23:11;16.38;;;6.70;;
74689;SDS011;63221;51.860;-2.188;2022-12-18T03:25:39;11.40;;;5.22;;
74689;SDS011;63221;51.860;-2.188;2022-12-18T03:28:06;13.18;;;6.57;;
74689;SDS011;63221;51.860;-2.188;2022-12-18T03:30:35;16.33;;;7.03;;
74689;SDS011;63221;51.860;-2.188;2022-12-18T03:33:05;13.93;;;6.07;;
74689;SDS011;63221;51.860;-2.188;2022-12-18T03:35:35;16.00;;;7.00;;
74689;SDS011;63221;51.860;-2.188;2022-12-18T03:38:04;16.10;;;5.75;;
74689;SDS011;63221;51.860;-2.188;2022-12-18T03:40:31;14.60;;;6.73;;
74689;SDS011;63221;51.860;-2.188;2022-12-18T03:43:16;13.93;;;6.07;;
74689;SDS011;63221;51.860;-2.188;2022-12-18T03:45:49;16.58;;;5.38;;
74689;SDS011;63221;51.860;-2.188;2022-12-18T03:53:59;15.63;;;6.27;;
74689;SDS011;63221;51.860;-2.188;2022-12-18T03:56:29;20.58;;;6.95;;
74689;SDS011;63221;51.860;-2.188;2022-12-18T03:58:57;17.33;;;7.38;;
74689;SDS011;63221;51.860;-2.188;2022-12-18T04:01:26;14.40;;;5.97;;
74689;SDS011;63221;51.860;-2.188;2022-12-18T04:03:56;19.63;;;7.45;;
74689;SDS011;63221;51.860;-2.188;2022-12-18T04:06:23;14.83;;;6.73;;
74689;SDS011;63221;51.860;-2.188;2022-12-18T04:08:49;15.13;;;7.47;;
74689;SDS011;63221;51.860;-2.188;2022-12-18T04:11:15;16.27;;;6.82;;
74689;SDS011;63221;51.860;-2.188;2022-12-18T04:13:41;19.47;;;7.87;;
74689;SDS011;63221;51.860;-2.188;2022-12-18T04:16:07;18.23;;;7.05;;
74689;SDS011;63221;51.860;-2.188;2022-12-18T04:18:34;19.63;;;8.33;;
74689;SDS011;63221;51.860;-2.188;2022-12-18T04:21:00;13.70;;;6.30;;
74689;SDS011;63221;51.860;-2.188;2022-12-18T04:23:26;18.75;;;7.55;;
74689;SDS011;63221;51.860;-2.188;2022-12-18T04:25:51;18.53;;;7.03;;
74689;SDS011;63221;51.860;-2.188;2022-12-18T04:28:17;16.67;;;7.47;;
74689;SDS011;63221;51.860;-2.188;2022-12-18T04:30:42;16.92;;;7.03;;
74689;SDS011;63221;51.860;-2.188;2022-12-18T04:33:08;17.70;;;6.73;;
74689;SDS011;63221;51.860;-2.188;2022-12-18T04:35:35;16.75;;;6.88;;
74689;SDS011;63221;51.860;-2.188;2022-12-18T04:38:00;16.10;;;7.23;;
74689;SDS011;63221;51.860;-2.188;2022-12-18T04:40:25;17.17;;;7.27;;
74689;SDS011;63221;51.860;-2.188;2022-12-18T04:42:51;15.00;;;5.87;;
74689;SDS011;63221;51.860;-2.188;2022-12-18T04:45:16;19.55;;;6.95;;
74689;SDS011;63221;51.860;-2.188;2022-12-18T04:47:42;16.30;;;6.13;;
74689;SDS011;63221;51.860;-2.188;2022-12-18T04:50:07;18.47;;;5.70;;
74689;SDS011;63221;51.860;-2.188;2022-12-18T04:52:33;14.43;;;6.38;;
74689;SDS011;63221;51.860;-2.188;2022-12-18T04:54:58;15.90;;;6.80;;
74689;SDS011;63221;51.860;-2.188;2022-12-18T04:57:24;17.47;;;6.90;;
74689;SDS011;63221;51.860;-2.188;2022-12-18T04:59:49;19.40;;;6.57;;
74689;SDS011;63221;51.860;-2.188;2022-12-18T05:02:14;18.07;;;7.27;;
74689;SDS011;63221;51.860;-2.188;2022-12-18T05:04:40;13.70;;;5.77;;
74689;SDS011;63221;51.860;-2.188;2022-12-18T05:07:05;15.73;;;6.60;;
74689;SDS011;63221;51.860;-2.188;2022-12-18T05:09:30;15.07;;;7.53;;
74689;SDS011;63221;51.860;-2.188;2022-12-18T05:11:56;15.37;;;6.53;;
74689;SDS011;63221;51.860;-2.188;2022-12-18T05:14:21;13.93;;;6.60;;
74689;SDS011;63221;51.860;-2.188;2022-12-18T05:16:47;18.50;;;6.22;;
74689;SDS011;63221;51.860;-2.188;2022-12-18T05:19:12;22.50;;;6.70;;
74689;SDS011;63221;51.860;-2.188;2022-12-18T05:21:37;16.77;;;6.63;;
74689;SDS011;63221;51.860;-2.188;2022-12-18T05:24:03;13.43;;;5.60;;
74689;SDS011;63221;51.860;-2.188;2022-12-18T05:26:29;18.40;;;6.45;;
74689;SDS011;63221;51.860;-2.188;2022-12-18T05:28:54;13.83;;;6.03;;
74689;SDS011;63221;51.860;-2.188;2022-12-18T05:31:20;15.27;;;6.95;;
74689;SDS011;63221;51.860;-2.188;2022-12-18T05:33:45;13.47;;;5.53;;
74689;SDS011;63221;51.860;-2.188;2022-12-18T05:36:11;17.03;;;7.03;;
74689;SDS011;63221;51.860;-2.188;2022-12-18T05:38:37;13.43;;;6.90;;
74689;SDS011;63221;51.860;-2.188;2022-12-18T05:41:04;15.90;;;7.67;;
74689;SDS011;63221;51.860;-2.188;2022-12-18T05:43:30;19.75;;;7.68;;
74689;SDS011;63221;51.860;-2.188;2022-12-18T05:45:55;16.00;;;6.27;;
74689;SDS011;63221;51.860;-2.188;2022-12-18T05:48:21;17.92;;;8.10;;
74689;SDS011;63221;51.860;-2.188;2022-12-18T05:50:47;17.30;;;6.93;;
74689;SDS011;63221;51.860;-2.188;2022-12-18T05:53:15;23.35;;;7.85;;
74689;SDS011;63221;51.860;-2.188;2022-12-18T05:55:42;17.20;;;7.30;;
74689;SDS011;63221;51.860;-2.188;2022-12-18T05:58:09;19.83;;;7.00;;
74689;SDS011;63221;51.860;-2.188;2022-12-18T06:00:39;16.30;;;6.50;;
74689;SDS011;63221;51.860;-2.188;2022-12-18T06:03:06;15.93;;;6.30;;
74689;SDS011;63221;51.860;-2.188;2022-12-18T06:05:36;17.02;;;7.18;;
74689;SDS011;63221;51.860;-2.188;2022-12-18T06:08:02;14.52;;;6.90;;
74689;SDS011;63221;51.860;-2.188;2022-12-18T06:10:28;16.80;;;7.87;;
74689;SDS011;63221;51.860;-2.188;2022-12-18T06:12:53;19.53;;;8.07;;
74689;SDS011;63221;51.860;-2.188;2022-12-18T06:15:19;15.63;;;7.15;;
74689;SDS011;63221;51.860;-2.188;2022-12-18T06:17:44;17.30;;;6.80;;
74689;SDS011;63221;51.860;-2.188;2022-12-18T06:20:09;17.37;;;7.13;;
74689;SDS011;63221;51.860;-2.188;2022-12-18T06:22:35;17.47;;;6.70;;
74689;SDS011;63221;51.860;-2.188;2022-12-18T06:25:00;17.33;;;6.83;;
74689;SDS011;63221;51.860;-2.188;2022-12-18T06:27:26;23.08;;;8.05;;
74689;SDS011;63221;51.860;-2.188;2022-12-18T06:29:51;18.67;;;6.80;;
74689;SDS011;63221;51.860;-2.188;2022-12-18T06:32:17;21.17;;;7.80;;
74689;SDS011;63221;51.860;-2.188;2022-12-18T06:34:42;16.73;;;6.90;;
74689;SDS011;63221;51.860;-2.188;2022-12-18T06:37:07;15.57;;;6.97;;
74689;SDS011;63221;51.860;-2.188;2022-12-18T06:39:33;16.57;;;6.57;;
74689;SDS011;63221;51.860;-2.188;2022-12-18T06:41:58;19.20;;;7.53;;
74689;SDS011;63221;51.860;-2.188;2022-12-18T06:44:23;20.10;;;8.40;;
74689;SDS011;63221;51.860;-2.188;2022-12-18T06:46:49;18.07;;;7.10;;
74689;SDS011;63221;51.860;-2.188;2022-12-18T06:49:14;13.85;;;6.13;;
74689;SDS011;63221;51.860;-2.188;2022-12-18T06:51:41;17.23;;;6.47;;
74689;SDS011;63221;51.860;-2.188;2022-12-18T06:54:06;16.35;;;7.03;;
74689;SDS011;63221;51.860;-2.188;2022-12-18T06:56:32;21.47;;;7.43;;
74689;SDS011;63221;51.860;-2.188;2022-12-18T06:58:57;19.27;;;8.00;;
74689;SDS011;63221;51.860;-2.188;2022-12-18T07:01:23;14.82;;;5.85;;
74689;SDS011;63221;51.860;-2.188;2022-12-18T07:03:52;16.40;;;6.67;;
74689;SDS011;63221;51.860;-2.188;2022-12-18T07:06:19;16.13;;;7.93;;
74689;SDS011;63221;51.860;-2.188;2022-12-18T07:08:46;18.95;;;8.45;;
74689;SDS011;63221;51.860;-2.188;2022-12-18T07:11:13;15.63;;;7.20;;
74689;SDS011;63221;51.860;-2.188;2022-12-18T07:13:38;18.48;;;8.88;;
74689;SDS011;63221;51.860;-2.188;2022-12-18T07:16:14;19.67;;;7.40;;
74689;SDS011;63221;51.860;-2.188;2022-12-18T07:18:43;19.58;;;7.07;;
74689;SDS011;63221;51.860;-2.188;2022-12-18T07:21:09;20.20;;;8.23;;
74689;SDS011;63221;51.860;-2.188;2022-12-18T07:23:36;16.93;;;6.83;;
74689;SDS011;63221;51.860;-2.188;2022-12-18T07:26:09;15.30;;;7.47;;
74689;SDS011;63221;51.860;-2.188;2022-12-18T07:28:36;16.67;;;6.60;;
74689;SDS011;63221;51.860;-2.188;2022-12-18T07:31:03;16.27;;;6.22;;
74689;SDS011;63221;51.860;-2.188;2022-12-18T07:33:30;13.38;;;5.80;;
74689;SDS011;63221;51.860;-2.188;2022-12-18T07:35:58;15.88;;;6.45;;
74689;SDS011;63221;51.860;-2.188;2022-12-18T07:38:24;15.23;;;6.70;;
74689;SDS011;63221;51.860;-2.188;2022-12-18T07:40:49;16.33;;;6.70;;
74689;SDS011;63221;51.860;-2.188;2022-12-18T07:43:14;15.67;;;6.37;;
74689;SDS011;63221;51.860;-2.188;2022-12-18T07:45:40;14.30;;;6.87;;
74689;SDS011;63221;51.860;-2.188;2022-12-18T07:48:06;16.95;;;7.88;;
74689;SDS011;63221;51.860;-2.188;2022-12-18T07:50:32;18.67;;;6.87;;
74689;SDS011;63221;51.860;-2.188;2022-12-18T07:52:57;18.23;;;7.13;;
74689;SDS011;63221;51.860;-2.188;2022-12-18T07:55:22;18.63;;;6.57;;
74689;SDS011;63221;51.860;-2.188;2022-12-18T07:57:48;15.80;;;6.80;;
74689;SDS011;63221;51.860;-2.188;2022-12-18T08:00:13;17.00;;;7.60;;
74689;SDS011;63221;51.860;-2.188;2022-12-18T08:02:39;17.20;;;7.65;;
74689;SDS011;63221;51.860;-2.188;2022-12-18T08:05:04;18.47;;;8.40;;
74689;SDS011;63221;51.860;-2.188;2022-12-18T08:07:30;22.43;;;7.70;;
74689;SDS011;63221;51.860;-2.188;2022-12-18T08:09:55;17.33;;;6.90;;
74689;SDS011;63221;51.860;-2.188;2022-12-18T08:12:21;17.10;;;7.05;;
74689;SDS011;63221;51.860;-2.188;2022-12-18T08:14:46;16.13;;;6.60;;
74689;SDS011;63221;51.860;-2.188;2022-12-18T08:17:11;14.87;;;6.23;;
74689;SDS011;63221;51.860;-2.188;2022-12-18T08:19:37;16.87;;;6.83;;
74689;SDS011;63221;51.860;-2.188;2022-12-18T08:22:02;20.77;;;8.00;;
74689;SDS011;63221;51.860;-2.188;2022-12-18T08:24:28;19.60;;;8.27;;
74689;SDS011;63221;51.860;-2.188;2022-12-18T08:26:53;19.80;;;7.70;;
74689;SDS011;63221;51.860;-2.188;2022-12-18T08:29:18;17.87;;;6.60;;
74689;SDS011;63221;51.860;-2.188;2022-12-18T08:31:44;15.83;;;6.00;;
74689;SDS011;63221;51.860;-2.188;2022-12-18T08:34:09;16.67;;;7.03;;
74689;SDS011;63221;51.860;-2.188;2022-12-18T08:36:35;16.80;;;6.78;;
74689;SDS011;63221;51.860;-2.188;2022-12-18T08:39:00;16.50;;;7.33;;
74689;SDS011;63221;51.860;-2.188;2022-12-18T08:41:25;17.83;;;7.17;;
74689;SDS011;63221;51.860;-2.188;2022-12-18T08:43:51;14.77;;;5.60;;
74689;SDS011;63221;51.860;-2.188;2022-12-18T08:46:39;15.05;;;8.15;;
74689;SDS011;63221;51.860;-2.188;2022-12-18T08:49:06;15.73;;;6.00;;
74689;SDS011;63221;51.860;-2.188;2022-12-18T08:51:32;13.93;;;7.18;;
74689;SDS011;63221;51.860;-2.188;2022-12-18T08:53:57;14.17;;;6.50;;
74689;SDS011;63221;51.860;-2.188;2022-12-18T08:56:23;16.53;;;6.30;;
74689;SDS011;63221;51.860;-2.188;2022-12-18T08:58:50;15.65;;;6.57;;
74689;SDS011;63221;51.860;-2.188;2022-12-18T09:01:17;19.30;;;6.23;;
74689;SDS011;63221;51.860;-2.188;2022-12-18T09:03:42;17.05;;;7.45;;
74689;SDS011;63221;51.860;-2.188;2022-12-18T09:06:08;15.53;;;6.30;;
74689;SDS011;63221;51.860;-2.188;2022-12-18T09:08:33;15.47;;;7.53;;
74689;SDS011;63221;51.860;-2.188;2022-12-18T09:11:01;13.50;;;6.45;;
74689;SDS011;63221;51.860;-2.188;2022-12-18T09:13:27;14.57;;;6.67;;
74689;SDS011;63221;51.860;-2.188;2022-12-18T09:15:53;16.73;;;6.33;;
74689;SDS011;63221;51.860;-2.188;2022-12-18T09:18:20;16.13;;;7.15;;
74689;SDS011;63221;51.860;-2.188;2022-12-18T09:20:46;18.48;;;7.85;;
74689;SDS011;63221;51.860;-2.188;2022-12-18T09:23:12;15.05;;;6.05;;
74689;SDS011;63221;51.860;-2.188;2022-12-18T09:25:38;12.43;;;6.17;;
74689;SDS011;63221;51.860;-2.188;2022-12-18T09:28:05;14.83;;;6.77;;
74689;SDS011;63221;51.860;-2.188;2022-12-18T09:30:31;17.87;;;6.73;;
74689;SDS011;63221;51.860;-2.188;2022-12-18T09:33:00;16.40;;;6.80;;
74689;SDS011;63221;51.860;-2.188;2022-12-18T09:35:25;15.50;;;6.53;;
74689;SDS011;63221;51.860;-2.188;2022-12-18T09:37:52;16.47;;;6.63;;
74689;SDS011;63221;51.860;-2.188;2022-12-18T09:40:19;13.15;;;5.82;;
74689;SDS011;63221;51.860;-2.188;2022-12-18T09:42:48;16.95;;;6.78;;
74689;SDS011;63221;51.860;-2.188;2022-12-18T09:45:17;20.30;;;6.95;;
74689;SDS011;63221;51.860;-2.188;2022-12-18T09:47:43;18.10;;;7.57;;
74689;SDS011;63221;51.860;-2.188;2022-12-18T09:53:10;17.70;;;6.43;;
74689;SDS011;63221;51.860;-2.188;2022-12-18T09:55:41;11.27;;;4.35;;
74689;SDS011;63221;51.860;-2.188;2022-12-18T09:58:13;17.15;;;7.82;;
74689;SDS011;63221;51.860;-2.188;2022-12-18T10:00:39;14.13;;;5.47;;
74689;SDS011;63221;51.860;-2.188;2022-12-18T10:03:10;14.38;;;6.57;;
74689;SDS011;63221;51.860;-2.188;2022-12-18T10:05:39;11.60;;;5.70;;
74689;SDS011;63221;51.860;-2.188;2022-12-18T10:08:09;12.68;;;6.88;;
74689;SDS011;63221;51.860;-2.188;2022-12-18T10:10:43;15.13;;;6.00;;
74689;SDS011;63221;51.860;-2.188;2022-12-18T10:13:23;14.07;;;6.67;;
74689;SDS011;63221;51.860;-2.188;2022-12-18T10:16:29;14.88;;;6.25;;
74689;SDS011;63221;51.860;-2.188;2022-12-18T10:21:47;14.55;;;6.20;;
74689;SDS011;63221;51.860;-2.188;2022-12-18T10:24:32;16.65;;;6.82;;
74689;SDS011;63221;51.860;-2.188;2022-12-18T10:27:08;15.50;;;6.07;;
74689;SDS011;63221;51.860;-2.188;2022-12-18T10:29:39;16.83;;;7.78;;
74689;SDS011;63221;51.860;-2.188;2022-12-18T10:32:06;15.85;;;6.90;;
74689;SDS011;63221;51.860;-2.188;2022-12-18T10:34:32;17.55;;;7.90;;
74689;SDS011;63221;51.860;-2.188;2022-12-18T10:36:58;18.57;;;6.10;;
74689;SDS011;63221;51.860;-2.188;2022-12-18T10:39:25;18.60;;;7.85;;
74689;SDS011;63221;51.860;-2.188;2022-12-18T10:41:51;17.10;;;8.30;;
74689;SDS011;63221;51.860;-2.188;2022-12-18T10:44:20;16.58;;;7.43;;
74689;SDS011;63221;51.860;-2.188;2022-12-18T10:46:50;13.50;;;6.87;;
74689;SDS011;63221;51.860;-2.188;2022-12-18T10:49:27;16.20;;;6.60;;
74689;SDS011;63221;51.860;-2.188;2022-12-18T10:52:11;16.05;;;7.35;;
74689;SDS011;63221;51.860;-2.188;2022-12-18T10:54:45;18.77;;;6.97;;
74689;SDS011;63221;51.860;-2.188;2022-12-18T10:57:29;14.15;;;6.65;;
74689;SDS011;63221;51.860;-2.188;2022-12-18T11:00:03;17.00;;;7.77;;
74689;SDS011;63221;51.860;-2.188;2022-12-18T11:03:00;15.77;;;7.45;;
74689;SDS011;63221;51.860;-2.188;2022-12-18T11:05:30;16.37;;;7.37;;
74689;SDS011;63221;51.860;-2.188;2022-12-18T11:08:01;18.23;;;7.18;;
74689;SDS011;63221;51.860;-2.188;2022-12-18T11:10:31;17.33;;;8.07;;
74689;SDS011;63221;51.860;-2.188;2022-12-18T11:13:11;16.90;;;7.73;;
74689;SDS011;63221;51.860;-2.188;2022-12-18T11:15:43;16.20;;;7.32;;
74689;SDS011;63221;51.860;-2.188;2022-12-18T11:20:55;17.00;;;7.60;;
74689;SDS011;63221;51.860;-2.188;2022-12-18T11:23:23;16.05;;;7.82;;
74689;SDS011;63221;51.860;-2.188;2022-12-18T11:25:59;16.77;;;8.03;;
74689;SDS011;63221;51.860;-2.188;2022-12-18T11:28:28;20.08;;;7.95;;
74689;SDS011;63221;51.860;-2.188;2022-12-18T11:33:41;16.23;;;7.13;;
74689;SDS011;63221;51.860;-2.188;2022-12-18T11:36:08;20.87;;;7.30;;
74689;SDS011;63221;51.860;-2.188;2022-12-18T11:38:38;16.35;;;6.88;;
74689;SDS011;63221;51.860;-2.188;2022-12-18T11:43:55;16.63;;;6.93;;
74689;SDS011;63221;51.860;-2.188;2022-12-18T11:46:42;17.33;;;7.78;;
74689;SDS011;63221;51.860;-2.188;2022-12-18T11:49:24;17.53;;;7.90;;
74689;SDS011;63221;51.860;-2.188;2022-12-18T11:54:29;21.90;;;8.70;;
74689;SDS011;63221;51.860;-2.188;2022-12-18T12:14:01;18.20;;;7.03;;
74689;SDS011;63221;51.860;-2.188;2022-12-18T12:16:43;20.25;;;7.15;;
74689;SDS011;63221;51.860;-2.188;2022-12-18T12:25:02;12.53;;;6.80;;
74689;SDS011;63221;51.860;-2.188;2022-12-18T12:27:49;17.52;;;7.22;;
74689;SDS011;63221;51.860;-2.188;2022-12-18T12:30:51;18.15;;;7.65;;
74689;SDS011;63221;51.860;-2.188;2022-12-18T12:38:59;13.37;;;7.20;;
74689;SDS011;63221;51.860;-2.188;2022-12-18T12:41:27;11.57;;;6.10;;
74689;SDS011;63221;51.860;-2.188;2022-12-18T12:44:35;15.02;;;6.78;;
74689;SDS011;63221;51.860;-2.188;2022-12-18T12:47:15;11.95;;;6.13;;
74689;SDS011;63221;51.860;-2.188;2022-12-18T12:49:43;13.18;;;7.15;;
74689;SDS011;63221;51.860;-2.188;2022-12-18T12:52:14;11.50;;;5.00;;
74689;SDS011;63221;51.860;-2.188;2022-12-18T12:54:43;8.85;;;4.55;;
74689;SDS011;63221;51.860;-2.188;2022-12-18T12:57:14;11.82;;;6.13;;
74689;SDS011;63221;51.860;-2.188;2022-12-18T13:07:50;11.73;;;6.10;;
74689;SDS011;63221;51.860;-2.188;2022-12-18T13:15:23;12.35;;;5.50;;
74689;SDS011;63221;51.860;-2.188;2022-12-18T13:18:03;8.33;;;5.10;;
74689;SDS011;63221;51.860;-2.188;2022-12-18T13:20:39;8.10;;;5.18;;
74689;SDS011;63221;51.860;-2.188;2022-12-18T13:31:58;9.30;;;4.70;;
74689;SDS011;63221;51.860;-2.188;2022-12-18T13:39:57;6.60;;;3.72;;
74689;SDS011;63221;51.860;-2.188;2022-12-18T13:48:33;6.13;;;3.15;;
74689;SDS011;63221;51.860;-2.188;2022-12-18T13:51:06;5.77;;;2.63;;
74689;SDS011;63221;51.860;-2.188;2022-12-18T13:53:36;5.53;;;2.53;;
74689;SDS011;63221;51.860;-2.188;2022-12-18T13:56:14;5.75;;;2.72;;
74689;SDS011;63221;51.860;-2.188;2022-12-18T13:58:40;5.90;;;2.75;;
74689;SDS011;63221;51.860;-2.188;2022-12-18T14:01:15;4.40;;;2.73;;
74689;SDS011;63221;51.860;-2.188;2022-12-18T14:03:47;6.55;;;2.63;;
74689;SDS011;63221;51.860;-2.188;2022-12-18T14:06:12;3.73;;;2.07;;
74689;SDS011;63221;51.860;-2.188;2022-12-18T14:08:39;4.57;;;1.95;;
74689;SDS011;63221;51.860;-2.188;2022-12-18T14:11:05;4.13;;;1.97;;
74689;SDS011;63221;51.860;-2.188;2022-12-18T14:13:35;3.70;;;1.90;;
74689;SDS011;63221;51.860;-2.188;2022-12-18T14:16:03;4.07;;;1.77;;
74689;SDS011;63221;51.860;-2.188;2022-12-18T14:21:27;4.70;;;2.20;;
74689;SDS011;63221;51.860;-2.188;2022-12-18T14:26:33;3.95;;;1.73;;
74689;SDS011;63221;51.860;-2.188;2022-12-18T14:29:00;3.40;;;1.67;;
74689;SDS011;63221;51.860;-2.188;2022-12-18T14:31:39;3.15;;;0.93;;
74689;SDS011;63221;51.860;-2.188;2022-12-18T14:34:05;2.97;;;1.77;;
74689;SDS011;63221;51.860;-2.188;2022-12-18T14:36:33;4.65;;;1.83;;
74689;SDS011;63221;51.860;-2.188;2022-12-18T14:38:58;2.43;;;1.30;;
74689;SDS011;63221;51.860;-2.188;2022-12-18T14:41:24;1.92;;;1.20;;
74689;SDS011;63221;51.860;-2.188;2022-12-18T14:43:52;4.57;;;0.88;;
74689;SDS011;63221;51.860;-2.188;2022-12-18T14:46:38;1.98;;;1.35;;
74689;SDS011;63221;51.860;-2.188;2022-12-18T14:49:05;3.63;;;1.23;;
74689;SDS011;63221;51.860;-2.188;2022-12-18T14:51:46;4.10;;;1.35;;
74689;SDS011;63221;51.860;-2.188;2022-12-18T14:54:38;3.80;;;1.83;;
74689;SDS011;63221;51.860;-2.188;2022-12-18T14:57:20;2.73;;;1.33;;
74689;SDS011;63221;51.860;-2.188;2022-12-18T14:59:46;2.55;;;1.00;;
74689;SDS011;63221;51.860;-2.188;2022-12-18T15:02:19;3.03;;;1.63;;
74689;SDS011;63221;51.860;-2.188;2022-12-18T15:04:46;2.50;;;1.50;;
74689;SDS011;63221;51.860;-2.188;2022-12-18T15:09:42;2.22;;;0.80;;
74689;SDS011;63221;51.860;-2.188;2022-12-18T15:12:47;2.47;;;1.02;;
74689;SDS011;63221;51.860;-2.188;2022-12-18T15:18:41;3.13;;;1.42;;
74689;SDS011;63221;51.860;-2.188;2022-12-18T15:20:58;1.47;;;0.87;;
74689;SDS011;63221;51.860;-2.188;2022-12-18T15:23:28;1.08;;;0.60;;
74689;SDS011;63221;51.860;-2.188;2022-12-18T15:26:08;2.72;;;1.60;;
74689;SDS011;63221;51.860;-2.188;2022-12-18T15:28:39;1.25;;;0.88;;
74689;SDS011;63221;51.860;-2.188;2022-12-18T15:33:43;2.43;;;1.33;;
74689;SDS011;63221;51.860;-2.188;2022-12-18T15:36:17;1.92;;;0.82;;
74689;SDS011;63221;51.860;-2.188;2022-12-18T15:38:49;1.20;;;0.82;;
74689;SDS011;63221;51.860;-2.188;2022-12-18T15:41:15;1.60;;;0.80;;
74689;SDS011;63221;51.860;-2.188;2022-12-18T15:43:42;1.70;;;1.40;;
74689;SDS011;63221;51.860;-2.188;2022-12-18T15:48:45;1.63;;;1.02;;
74689;SDS011;63221;51.860;-2.188;2022-12-18T15:51:17;1.50;;;0.73;;
74689;SDS011;63221;51.860;-2.188;2022-12-18T15:54:03;2.15;;;0.90;;
74689;SDS011;63221;51.860;-2.188;2022-12-18T15:56:30;1.52;;;0.95;;
74689;SDS011;63221;51.860;-2.188;2022-12-18T15:59:14;1.27;;;0.82;;
74689;SDS011;63221;51.860;-2.188;2022-12-18T16:01:42;1.58;;;0.82;;
74689;SDS011;63221;51.860;-2.188;2022-12-18T16:04:13;0.83;;;0.40;;
74689;SDS011;63221;51.860;-2.188;2022-12-18T16:06:41;1.98;;;0.65;;
74689;SDS011;63221;51.860;-2.188;2022-12-18T16:09:06;4.47;;;1.40;;
74689;SDS011;63221;51.860;-2.188;2022-12-18T16:11:33;2.25;;;1.00;;
74689;SDS011;63221;51.860;-2.188;2022-12-18T16:14:17;2.05;;;0.95;;
74689;SDS011;63221;51.860;-2.188;2022-12-18T16:16:44;2.53;;;1.50;;
74689;SDS011;63221;51.860;-2.188;2022-12-18T16:19:10;2.70;;;1.40;;
74689;SDS011;63221;51.860;-2.188;2022-12-18T16:21:36;1.77;;;1.13;;
74689;SDS011;63221;51.860;-2.188;2022-12-18T16:24:01;1.33;;;0.80;;
74689;SDS011;63221;51.860;-2.188;2022-12-18T16:26:27;1.90;;;1.10;;
74689;SDS011;63221;51.860;-2.188;2022-12-18T16:28:52;1.20;;;0.70;;
74689;SDS011;63221;51.860;-2.188;2022-12-18T16:31:18;1.73;;;1.03;;
74689;SDS011;63221;51.860;-2.188;2022-12-18T16:33:44;1.60;;;1.33;;
74689;SDS011;63221;51.860;-2.188;2022-12-18T16:36:09;1.08;;;0.80;;
74689;SDS011;63221;51.860;-2.188;2022-12-18T16:38:35;1.07;;;0.90;;
74689;SDS011;63221;51.860;-2.188;2022-12-18T16:41:00;1.70;;;1.17;;